Accueil
METAR-TAF:

METAR-TAF

Aéroports :

Aéroport de Sion

Sion, Suisse

latitude: 46-13N, longitude: 007-20E, altitude: 482 m

Observation

Le bulletin a été fait il y a 25 minutes, à 20:20 UTC
Vent calme
Température 15°C
Humidité 67%
Pression 1029 hPa
Visibilité 10 km ou plus
pas de nuages en-dessous de 1500 mètres et pas de cumulonimbus.

METAR: LSGS 062020Z AUTO 00000KT CAVOK 15/09 Q1029

Heure: 22:45 (20:45 UTC)

Prévision

Le bulletin a été fait il y a 6 heures et 20 minutes, à 14:25 UTC
Prévision valable du 06 à 15 UTC au 06 à 24 UTC
Vent 12 kt de ouest/sud-ouest
Visibilité 10 km ou plus
pas de nuages en-dessous de 1500 mètres et pas de cumulonimbus.
Evoluant progressivement
du 06 à 16 UTC au 06 à 18 UTC
Vent 2 kt de direction variable

TAF: LSGS 061425Z 0615/0624 25012KT CAVOK BECMG 0616/0618 VRB02KT

Observations et prévisions météorologiques de plus de 4000 aéroports (messages METAR et TAF).

Les stations disponibles sont représentées par des disques jaunes et rouges sur la carte.

Passer la souris dessus pour voir le nom de la station.

Cliquer dessus pour voir les observations et prévisions météorologiques.

Pour changer de carte: cliquez sur les boutons verts avec une croix noire pour zoomer, sur le bouton vert avec un tiret pour effectuer un zoom arrière, ou sur les flèches vertes pour les cartes adjacentes.


METAR-TAF: